• Join FlightAware (Why Join?)
  • Login
  • US Flag 
08:13PM EDT


 

Airport Tracker/Info


-or-


 

Live Flight TrackerFlight Track Log ✈ CSJ405 ✈ 30-Apr-2013 ✈ KALB - KCDW

Flight Track Log - Related Links

Times and Time Zones

All times are in EDT time to prevent confusion due to time zone crossing. See the CSJ405 flight status page for this flight to view local times or setup timezone preferences in your user account.

Time Position Orientation Groundspeed Altitude Reporting Facility
EDT Latitude Longitude Course Direction KTS MPH feet Rate Location/Type
05:27PM 42.7381 -73.8083 206° Southwest 96 110 1,100  Level Boston Center
05:28PM 42.7192 -73.8164 197° South 106 122 1,700 840 Climbing Boston Center
05:29PM 42.6919 -73.8383 211° Southwest 128 147 2,600 900 Climbing Boston Center
05:30PM 42.6583 -73.8544 199° South 124 143 3,600 840 Climbing Boston Center
05:31PM 42.6308 -73.8822 217° Southwest 130 150 4,400 780 Climbing Boston Center
05:32PM 42.5992 -73.9153 218° Southwest 135 155 5,200 780 Climbing Boston Center
05:33PM 42.5125 -73.8641 206° Southwest  Level Estimated
05:33PM 42.5656 -73.9369 205° Southwest 140 161 6,000  Level Boston Center
05:34PM 42.5297 -73.9642 209° Southwest 141 162 6,800 780 Climbing Boston Center
05:35PM 42.4942 -73.9889 207° Southwest 138 159 7,600 540 Climbing Boston Center
05:36PM 42.4603 -74.0189 213° Southwest 147 169 8,000 240 Climbing Boston Center
05:37PM 42.4350 -74.0350 205° Southwest 165 190 8,000  Level Boston Center
05:37PM 42.4203 -74.0461 209° Southwest 170 196 8,000  Level Boston Center
05:38PM 42.4014 -74.0567 202° Southwest 170 196 8,000  Level Boston Center
05:39PM 42.3528 -74.0947 210° Southwest 175 201 8,000  Level Boston Center
05:40PM 42.3067 -74.1272 208° Southwest 180 207 8,000  Level Boston Center
05:41PM 42.2644 -74.1597 210° Southwest 175 201 8,000  Level Boston Center
05:42PM 42.2222 -74.1950 212° Southwest 181 208 8,000  Level Boston Center
05:43PM 42.1800 -74.2275 210° Southwest 181 208 8,100  Climbing Boston Center
05:44PM 42.1378 -74.2600 210° Southwest 181 208 8,000 -60 Descending Boston Center
05:45PM 42.0936 -74.2894 206° Southwest 181 208 8,000  Level Boston Center
05:46PM 42.0494 -74.3078 197° South 181 208 8,000 -120 Level Boston Center
05:47PM 41.9992 -74.3286 197° South 176 203 7,800 -300 Descending Boston Center
05:48PM 41.9531 -74.3467 196° South 181 208 7,400 -420 Descending Boston Center
05:49PM 41.8961 -74.3758 201° Southwest 186 214 7,000 -240 Descending Boston Center
05:50PM 41.8542 -74.3939 198° South 186 214 7,000  Level Boston Center
05:51PM 41.8058 -74.4175 200° South 180 207 7,000  Level Boston Center
05:52PM 41.7639 -74.4356 198° South 175 201 7,000  Level Boston Center
05:53PM 41.7156 -74.4564 198° South 175 201 7,000  Level Boston Center
05:54PM 41.6756 -74.4775 202° Southwest 175 201 7,000  Level Boston Center
05:55PM 41.6250 -74.5008 199° South 170 196 7,000 -240 Level Boston Center
05:56PM 41.5831 -74.5189 198° South 176 203 6,600 -540 Descending Boston Center
05:57PM 41.5325 -74.5422 199° South 176 203 6,000 -300 Descending Boston Center
05:58PM 41.4928 -74.5603 199° South 170 196 6,000  Level Boston Center
06:01PM 41.3667 -74.6167 199° South 167 192 6,100  Climbing New York TRACON
06:02PM 41.3333 -74.6333 201° Southwest 171 197 6,100 -300 Level New York TRACON
06:03PM 41.2833 -74.6500 194° South 174 200 5,500 -540 Descending New York TRACON
06:04PM 41.2333 -74.6667 194° South 176 203 5,100 -600 Descending New York TRACON
06:05PM 41.1833 -74.6833 194° South 176 203 4,400 -540 Descending New York TRACON
06:06PM 41.1500 -74.7000 201° Southwest 176 203 4,100 -180 Descending New York TRACON
06:07PM 41.1000 -74.7167 194° South 166 191 4,100  Level New York TRACON
06:08PM 41.0667 -74.6833 143° Southeast 159 183 4,100 -240 Level New York TRACON
06:09PM 41.0500 -74.6333 114° Southeast 158 182 3,700 -600 Descending New York TRACON
06:10PM 41.0333 -74.5833 114° Southeast 162 186 3,000 -420 Descending New York TRACON
06:11PM 41.0000 -74.5333 131° Southeast 154 177 2,900 -180 Descending New York TRACON
06:12PM 40.9833 -74.4833 114° Southeast 155 178 2,700 -240 Descending New York TRACON
06:13PM 40.9500 -74.4333 131° Southeast 155 178 2,500 -300 Descending New York TRACON
06:14PM 40.9333 -74.4000 123° Southeast 157 181 2,100 -420 Descending New York TRACON
06:15PM 40.9000 -74.3500 131° Southeast 150 173 1,800 -540 Descending New York TRACON
06:16PM 40.8833 -74.3000 114° Southeast 141 162 1,100 -660 Descending New York TRACON
06:18PM 40.8752 -74.2814 128° Southeast  Level Estimated
06:25PM 40.8752 -74.2814 128° Southeast  Level Estimated
06:26PM 40.8752 -74.2814 128° Southeast  Level Estimated
06:27PM 40.8752 -74.2814 128° Southeast  Level Estimated
06:28PM 40.8752 -74.2814 128° Southeast  Level Estimated